sensor_id;sensor_type;location;lat;lon;timestamp;P1;durP1;ratioP1;P2;durP2;ratioP2
19384;SDS011;9828;54.122;17.974;2022-08-19T00:01:27;10.07;;;8.15;;
19384;SDS011;9828;54.122;17.974;2022-08-19T00:06:51;8.23;;;7.30;;
19384;SDS011;9828;54.122;17.974;2022-08-19T00:12:13;8.65;;;7.60;;
19384;SDS011;9828;54.122;17.974;2022-08-19T00:17:34;8.57;;;7.68;;
19384;SDS011;9828;54.122;17.974;2022-08-19T00:22:56;10.55;;;8.68;;
19384;SDS011;9828;54.122;17.974;2022-08-19T00:28:18;11.80;;;9.63;;
19384;SDS011;9828;54.122;17.974;2022-08-19T00:33:41;11.70;;;7.45;;
19384;SDS011;9828;54.122;17.974;2022-08-19T00:39:04;9.38;;;7.13;;
19384;SDS011;9828;54.122;17.974;2022-08-19T00:44:27;10.38;;;7.28;;
19384;SDS011;9828;54.122;17.974;2022-08-19T00:49:53;10.90;;;7.80;;
19384;SDS011;9828;54.122;17.974;2022-08-19T00:55:19;11.52;;;7.90;;
19384;SDS011;9828;54.122;17.974;2022-08-19T01:00:45;8.57;;;7.20;;
19384;SDS011;9828;54.122;17.974;2022-08-19T01:06:07;9.93;;;7.32;;
19384;SDS011;9828;54.122;17.974;2022-08-19T01:11:29;8.38;;;7.50;;
19384;SDS011;9828;54.122;17.974;2022-08-19T01:16:53;7.80;;;7.00;;
19384;SDS011;9828;54.122;17.974;2022-08-19T01:27:49;10.25;;;7.60;;
19384;SDS011;9828;54.122;17.974;2022-08-19T01:33:11;7.35;;;6.65;;
19384;SDS011;9828;54.122;17.974;2022-08-19T01:38:35;7.75;;;6.95;;
19384;SDS011;9828;54.122;17.974;2022-08-19T01:43:58;9.38;;;6.57;;
19384;SDS011;9828;54.122;17.974;2022-08-19T01:49:24;8.23;;;7.40;;
19384;SDS011;9828;54.122;17.974;2022-08-19T01:54:47;7.43;;;6.65;;
19384;SDS011;9828;54.122;17.974;2022-08-19T02:00:10;8.52;;;7.55;;
19384;SDS011;9828;54.122;17.974;2022-08-19T02:05:32;9.02;;;6.85;;
19384;SDS011;9828;54.122;17.974;2022-08-19T02:10:54;7.63;;;6.63;;
19384;SDS011;9828;54.122;17.974;2022-08-19T02:16:16;8.20;;;6.60;;
19384;SDS011;9828;54.122;17.974;2022-08-19T02:21:39;8.25;;;7.45;;
19384;SDS011;9828;54.122;17.974;2022-08-19T02:27:00;8.10;;;6.82;;
19384;SDS011;9828;54.122;17.974;2022-08-19T02:32:22;11.60;;;7.03;;
19384;SDS011;9828;54.122;17.974;2022-08-19T02:37:44;7.88;;;7.07;;
19384;SDS011;9828;54.122;17.974;2022-08-19T02:43:25;8.50;;;7.18;;
19384;SDS011;9828;54.122;17.974;2022-08-19T02:48:48;8.57;;;6.93;;
19384;SDS011;9828;54.122;17.974;2022-08-19T02:54:11;7.88;;;6.80;;
19384;SDS011;9828;54.122;17.974;2022-08-19T02:59:33;7.22;;;6.53;;
19384;SDS011;9828;54.122;17.974;2022-08-19T03:04:54;7.90;;;7.05;;
19384;SDS011;9828;54.122;17.974;2022-08-19T03:10:16;8.98;;;7.90;;
19384;SDS011;9828;54.122;17.974;2022-08-19T03:15:42;10.38;;;8.10;;
19384;SDS011;9828;54.122;17.974;2022-08-19T03:21:06;8.52;;;7.68;;
19384;SDS011;9828;54.122;17.974;2022-08-19T03:26:28;7.47;;;6.78;;
19384;SDS011;9828;54.122;17.974;2022-08-19T03:31:49;9.95;;;7.70;;
19384;SDS011;9828;54.122;17.974;2022-08-19T03:37:12;8.15;;;7.30;;
19384;SDS011;9828;54.122;17.974;2022-08-19T03:42:34;7.72;;;6.82;;
19384;SDS011;9828;54.122;17.974;2022-08-19T03:47:55;7.95;;;7.13;;
19384;SDS011;9828;54.122;17.974;2022-08-19T03:53:17;8.25;;;6.82;;
19384;SDS011;9828;54.122;17.974;2022-08-19T03:58:39;7.93;;;6.68;;
19384;SDS011;9828;54.122;17.974;2022-08-19T04:04:01;8.98;;;8.10;;
19384;SDS011;9828;54.122;17.974;2022-08-19T04:09:23;10.20;;;8.45;;
19384;SDS011;9828;54.122;17.974;2022-08-19T04:14:46;9.43;;;8.40;;
19384;SDS011;9828;54.122;17.974;2022-08-19T04:20:07;9.48;;;7.82;;
19384;SDS011;9828;54.122;17.974;2022-08-19T04:25:34;9.07;;;7.32;;
19384;SDS011;9828;54.122;17.974;2022-08-19T04:30:57;9.48;;;7.80;;
19384;SDS011;9828;54.122;17.974;2022-08-19T04:36:20;9.88;;;7.63;;
19384;SDS011;9828;54.122;17.974;2022-08-19T04:41:44;12.05;;;8.95;;
19384;SDS011;9828;54.122;17.974;2022-08-19T04:47:24;12.95;;;10.35;;
19384;SDS011;9828;54.122;17.974;2022-08-19T04:52:46;12.43;;;9.70;;
19384;SDS011;9828;54.122;17.974;2022-08-19T04:58:10;14.50;;;9.90;;
19384;SDS011;9828;54.122;17.974;2022-08-19T05:03:32;11.88;;;9.57;;
19384;SDS011;9828;54.122;17.974;2022-08-19T05:08:54;9.82;;;8.88;;
19384;SDS011;9828;54.122;17.974;2022-08-19T05:14:16;10.07;;;8.27;;
19384;SDS011;9828;54.122;17.974;2022-08-19T05:19:37;11.40;;;9.38;;
19384;SDS011;9828;54.122;17.974;2022-08-19T05:25:18;17.52;;;9.65;;
19384;SDS011;9828;54.122;17.974;2022-08-19T05:30:40;10.95;;;8.75;;
19384;SDS011;9828;54.122;17.974;2022-08-19T05:36:06;11.35;;;9.50;;
19384;SDS011;9828;54.122;17.974;2022-08-19T05:41:28;14.45;;;10.50;;
19384;SDS011;9828;54.122;17.974;2022-08-19T05:46:51;15.32;;;10.48;;
19384;SDS011;9828;54.122;17.974;2022-08-19T05:52:14;16.40;;;10.32;;
19384;SDS011;9828;54.122;17.974;2022-08-19T05:57:36;10.30;;;9.18;;
19384;SDS011;9828;54.122;17.974;2022-08-19T06:02:58;15.05;;;11.13;;
19384;SDS011;9828;54.122;17.974;2022-08-19T06:08:23;15.95;;;10.15;;
19384;SDS011;9828;54.122;17.974;2022-08-19T06:13:45;14.15;;;10.38;;
19384;SDS011;9828;54.122;17.974;2022-08-19T06:19:12;18.42;;;10.30;;
19384;SDS011;9828;54.122;17.974;2022-08-19T06:24:36;13.38;;;10.10;;
19384;SDS011;9828;54.122;17.974;2022-08-19T06:29:57;11.10;;;8.65;;
19384;SDS011;9828;54.122;17.974;2022-08-19T06:35:19;15.05;;;9.73;;
19384;SDS011;9828;54.122;17.974;2022-08-19T06:40:40;10.70;;;9.20;;
19384;SDS011;9828;54.122;17.974;2022-08-19T06:46:09;12.80;;;9.93;;
19384;SDS011;9828;54.122;17.974;2022-08-19T06:51:32;13.60;;;9.25;;
19384;SDS011;9828;54.122;17.974;2022-08-19T06:57:01;13.23;;;9.25;;
19384;SDS011;9828;54.122;17.974;2022-08-19T07:02:22;11.13;;;9.63;;
19384;SDS011;9828;54.122;17.974;2022-08-19T07:07:46;12.30;;;9.23;;
19384;SDS011;9828;54.122;17.974;2022-08-19T07:13:07;13.85;;;9.77;;
19384;SDS011;9828;54.122;17.974;2022-08-19T07:18:28;15.65;;;9.02;;
19384;SDS011;9828;54.122;17.974;2022-08-19T07:23:50;11.82;;;9.35;;
19384;SDS011;9828;54.122;17.974;2022-08-19T07:29:12;11.30;;;8.80;;
19384;SDS011;9828;54.122;17.974;2022-08-19T07:34:33;18.17;;;8.50;;
19384;SDS011;9828;54.122;17.974;2022-08-19T07:39:57;13.80;;;7.97;;
19384;SDS011;9828;54.122;17.974;2022-08-19T07:45:19;12.43;;;8.85;;
19384;SDS011;9828;54.122;17.974;2022-08-19T07:50:40;12.35;;;8.10;;
19384;SDS011;9828;54.122;17.974;2022-08-19T07:56:01;10.23;;;8.27;;
19384;SDS011;9828;54.122;17.974;2022-08-19T08:01:25;15.30;;;7.43;;
19384;SDS011;9828;54.122;17.974;2022-08-19T08:06:48;7.72;;;6.95;;
19384;SDS011;9828;54.122;17.974;2022-08-19T08:12:30;8.63;;;6.80;;
19384;SDS011;9828;54.122;17.974;2022-08-19T08:18:01;11.27;;;7.60;;
19384;SDS011;9828;54.122;17.974;2022-08-19T08:23:23;12.15;;;7.45;;
19384;SDS011;9828;54.122;17.974;2022-08-19T08:28:48;19.13;;;7.25;;
19384;SDS011;9828;54.122;17.974;2022-08-19T08:34:12;14.85;;;6.88;;
19384;SDS011;9828;54.122;17.974;2022-08-19T08:39:34;9.70;;;7.00;;
19384;SDS011;9828;54.122;17.974;2022-08-19T08:50:28;10.38;;;6.32;;
19384;SDS011;9828;54.122;17.974;2022-08-19T08:55:56;12.38;;;6.50;;
19384;SDS011;9828;54.122;17.974;2022-08-19T09:01:17;11.18;;;6.63;;
19384;SDS011;9828;54.122;17.974;2022-08-19T09:06:44;13.77;;;6.65;;
19384;SDS011;9828;54.122;17.974;2022-08-19T09:12:26;8.35;;;5.28;;
19384;SDS011;9828;54.122;17.974;2022-08-19T09:17:59;12.07;;;6.00;;
19384;SDS011;9828;54.122;17.974;2022-08-19T09:23:24;7.68;;;5.30;;
19384;SDS011;9828;54.122;17.974;2022-08-19T09:28:47;9.70;;;5.40;;
19384;SDS011;9828;54.122;17.974;2022-08-19T09:34:10;10.13;;;6.78;;
19384;SDS011;9828;54.122;17.974;2022-08-19T09:39:31;12.88;;;5.63;;
19384;SDS011;9828;54.122;17.974;2022-08-19T09:44:52;8.68;;;5.70;;
19384;SDS011;9828;54.122;17.974;2022-08-19T09:50:14;13.60;;;6.93;;
19384;SDS011;9828;54.122;17.974;2022-08-19T09:55:41;8.85;;;5.88;;
19384;SDS011;9828;54.122;17.974;2022-08-19T10:01:03;8.68;;;6.05;;
19384;SDS011;9828;54.122;17.974;2022-08-19T10:06:27;12.77;;;6.18;;
19384;SDS011;9828;54.122;17.974;2022-08-19T10:11:54;10.07;;;5.65;;
19384;SDS011;9828;54.122;17.974;2022-08-19T10:17:15;11.55;;;5.28;;
19384;SDS011;9828;54.122;17.974;2022-08-19T10:22:37;9.85;;;5.47;;
19384;SDS011;9828;54.122;17.974;2022-08-19T10:28:00;8.73;;;5.60;;
19384;SDS011;9828;54.122;17.974;2022-08-19T10:33:21;9.88;;;5.22;;
19384;SDS011;9828;54.122;17.974;2022-08-19T10:38:43;11.15;;;5.60;;
19384;SDS011;9828;54.122;17.974;2022-08-19T10:44:13;13.02;;;6.35;;
19384;SDS011;9828;54.122;17.974;2022-08-19T10:49:36;11.73;;;5.10;;
19384;SDS011;9828;54.122;17.974;2022-08-19T10:55:18;13.02;;;6.60;;
19384;SDS011;9828;54.122;17.974;2022-08-19T11:01:00;10.40;;;5.90;;
19384;SDS011;9828;54.122;17.974;2022-08-19T11:06:22;9.15;;;5.43;;
19384;SDS011;9828;54.122;17.974;2022-08-19T11:11:45;7.60;;;5.53;;
19384;SDS011;9828;54.122;17.974;2022-08-19T11:17:07;10.35;;;5.78;;
19384;SDS011;9828;54.122;17.974;2022-08-19T11:22:30;16.50;;;6.07;;
19384;SDS011;9828;54.122;17.974;2022-08-19T11:27:53;15.02;;;5.50;;
19384;SDS011;9828;54.122;17.974;2022-08-19T11:33:14;8.27;;;5.25;;
19384;SDS011;9828;54.122;17.974;2022-08-19T11:38:35;7.38;;;5.07;;
19384;SDS011;9828;54.122;17.974;2022-08-19T11:43:57;14.40;;;5.90;;
19384;SDS011;9828;54.122;17.974;2022-08-19T11:49:19;27.65;;;6.53;;
19384;SDS011;9828;54.122;17.974;2022-08-19T11:54:41;14.27;;;5.88;;
19384;SDS011;9828;54.122;17.974;2022-08-19T12:00:03;13.57;;;5.60;;
19384;SDS011;9828;54.122;17.974;2022-08-19T12:05:27;7.63;;;5.60;;
19384;SDS011;9828;54.122;17.974;2022-08-19T12:10:49;13.75;;;5.30;;
19384;SDS011;9828;54.122;17.974;2022-08-19T12:16:11;13.73;;;6.03;;
19384;SDS011;9828;54.122;17.974;2022-08-19T12:21:35;10.73;;;5.25;;
19384;SDS011;9828;54.122;17.974;2022-08-19T12:26:57;11.15;;;5.78;;
19384;SDS011;9828;54.122;17.974;2022-08-19T12:32:21;15.25;;;5.63;;
19384;SDS011;9828;54.122;17.974;2022-08-19T12:37:45;5.53;;;4.90;;
19384;SDS011;9828;54.122;17.974;2022-08-19T12:43:07;9.07;;;5.45;;
19384;SDS011;9828;54.122;17.974;2022-08-19T12:48:29;12.20;;;5.63;;
19384;SDS011;9828;54.122;17.974;2022-08-19T12:53:51;11.38;;;6.15;;
19384;SDS011;9828;54.122;17.974;2022-08-19T12:59:13;10.55;;;5.05;;
19384;SDS011;9828;54.122;17.974;2022-08-19T13:04:36;12.30;;;5.43;;
19384;SDS011;9828;54.122;17.974;2022-08-19T13:10:02;9.23;;;5.43;;
19384;SDS011;9828;54.122;17.974;2022-08-19T13:15:23;13.80;;;5.55;;
19384;SDS011;9828;54.122;17.974;2022-08-19T13:20:45;14.25;;;5.80;;
19384;SDS011;9828;54.122;17.974;2022-08-19T13:26:06;11.63;;;6.20;;
19384;SDS011;9828;54.122;17.974;2022-08-19T13:31:30;13.02;;;6.03;;
19384;SDS011;9828;54.122;17.974;2022-08-19T13:37:12;13.85;;;5.45;;
19384;SDS011;9828;54.122;17.974;2022-08-19T13:42:33;9.43;;;6.00;;
19384;SDS011;9828;54.122;17.974;2022-08-19T13:47:56;18.15;;;5.47;;
19384;SDS011;9828;54.122;17.974;2022-08-19T13:53:18;10.23;;;7.03;;
19384;SDS011;9828;54.122;17.974;2022-08-19T13:58:40;10.48;;;6.28;;
19384;SDS011;9828;54.122;17.974;2022-08-19T14:04:02;16.02;;;6.35;;
19384;SDS011;9828;54.122;17.974;2022-08-19T14:09:24;8.07;;;6.00;;
19384;SDS011;9828;54.122;17.974;2022-08-19T14:14:46;9.85;;;6.40;;
19384;SDS011;9828;54.122;17.974;2022-08-19T14:20:08;15.63;;;6.45;;
19384;SDS011;9828;54.122;17.974;2022-08-19T14:25:31;9.98;;;6.30;;
19384;SDS011;9828;54.122;17.974;2022-08-19T14:30:54;12.38;;;6.18;;
19384;SDS011;9828;54.122;17.974;2022-08-19T14:36:16;16.08;;;6.80;;
19384;SDS011;9828;54.122;17.974;2022-08-19T14:41:39;13.00;;;6.60;;
19384;SDS011;9828;54.122;17.974;2022-08-19T14:47:03;12.43;;;7.50;;
19384;SDS011;9828;54.122;17.974;2022-08-19T14:52:24;9.50;;;7.15;;
19384;SDS011;9828;54.122;17.974;2022-08-19T14:57:46;7.90;;;6.25;;
19384;SDS011;9828;54.122;17.974;2022-08-19T15:03:07;11.20;;;6.90;;
19384;SDS011;9828;54.122;17.974;2022-08-19T15:08:29;16.48;;;6.63;;
19384;SDS011;9828;54.122;17.974;2022-08-19T15:13:51;12.10;;;6.10;;
19384;SDS011;9828;54.122;17.974;2022-08-19T15:19:13;13.50;;;6.15;;
19384;SDS011;9828;54.122;17.974;2022-08-19T15:24:35;9.52;;;6.65;;
19384;SDS011;9828;54.122;17.974;2022-08-19T15:29:58;12.15;;;6.85;;
19384;SDS011;9828;54.122;17.974;2022-08-19T15:35:20;12.70;;;6.93;;
19384;SDS011;9828;54.122;17.974;2022-08-19T15:40:43;9.10;;;6.53;;
19384;SDS011;9828;54.122;17.974;2022-08-19T15:46:05;13.77;;;6.47;;
19384;SDS011;9828;54.122;17.974;2022-08-19T15:51:27;9.27;;;6.65;;
19384;SDS011;9828;54.122;17.974;2022-08-19T15:56:50;12.23;;;8.07;;
19384;SDS011;9828;54.122;17.974;2022-08-19T16:02:30;14.30;;;6.40;;
19384;SDS011;9828;54.122;17.974;2022-08-19T16:08:11;12.10;;;6.57;;
19384;SDS011;9828;54.122;17.974;2022-08-19T16:13:32;21.75;;;9.25;;
19384;SDS011;9828;54.122;17.974;2022-08-19T16:18:54;12.50;;;6.40;;
19384;SDS011;9828;54.122;17.974;2022-08-19T16:24:18;14.48;;;8.63;;
19384;SDS011;9828;54.122;17.974;2022-08-19T16:29:41;11.68;;;7.25;;
19384;SDS011;9828;54.122;17.974;2022-08-19T16:35:03;14.93;;;6.97;;
19384;SDS011;9828;54.122;17.974;2022-08-19T16:40:26;14.82;;;6.68;;
19384;SDS011;9828;54.122;17.974;2022-08-19T16:45:48;13.02;;;8.13;;
19384;SDS011;9828;54.122;17.974;2022-08-19T16:51:13;16.70;;;8.07;;
19384;SDS011;9828;54.122;17.974;2022-08-19T16:56:35;10.73;;;6.95;;
19384;SDS011;9828;54.122;17.974;2022-08-19T17:01:56;10.45;;;7.53;;
19384;SDS011;9828;54.122;17.974;2022-08-19T17:07:17;12.98;;;7.22;;
19384;SDS011;9828;54.122;17.974;2022-08-19T17:12:39;10.00;;;6.35;;
19384;SDS011;9828;54.122;17.974;2022-08-19T17:18:01;13.57;;;6.63;;
19384;SDS011;9828;54.122;17.974;2022-08-19T17:23:24;13.52;;;7.13;;
19384;SDS011;9828;54.122;17.974;2022-08-19T17:28:47;15.93;;;6.68;;
19384;SDS011;9828;54.122;17.974;2022-08-19T17:34:11;11.98;;;6.88;;
19384;SDS011;9828;54.122;17.974;2022-08-19T17:39:32;11.40;;;7.53;;
19384;SDS011;9828;54.122;17.974;2022-08-19T17:44:54;10.90;;;7.53;;
19384;SDS011;9828;54.122;17.974;2022-08-19T17:50:18;11.15;;;6.50;;
19384;SDS011;9828;54.122;17.974;2022-08-19T17:55:41;17.88;;;8.43;;
19384;SDS011;9828;54.122;17.974;2022-08-19T18:01:03;16.70;;;7.05;;
19384;SDS011;9828;54.122;17.974;2022-08-19T18:06:24;15.52;;;7.25;;
19384;SDS011;9828;54.122;17.974;2022-08-19T18:11:45;11.23;;;6.82;;
19384;SDS011;9828;54.122;17.974;2022-08-19T18:17:11;10.82;;;6.30;;
19384;SDS011;9828;54.122;17.974;2022-08-19T18:22:38;14.98;;;7.70;;
19384;SDS011;9828;54.122;17.974;2022-08-19T18:28:00;16.50;;;7.88;;
19384;SDS011;9828;54.122;17.974;2022-08-19T18:33:22;12.25;;;7.80;;
19384;SDS011;9828;54.122;17.974;2022-08-19T18:38:44;16.75;;;7.45;;
19384;SDS011;9828;54.122;17.974;2022-08-19T18:44:26;19.40;;;8.05;;
19384;SDS011;9828;54.122;17.974;2022-08-19T18:50:06;11.38;;;7.63;;
19384;SDS011;9828;54.122;17.974;2022-08-19T18:55:29;14.68;;;7.88;;
19384;SDS011;9828;54.122;17.974;2022-08-19T19:00:50;12.13;;;8.30;;
19384;SDS011;9828;54.122;17.974;2022-08-19T19:06:16;8.43;;;6.82;;
19384;SDS011;9828;54.122;17.974;2022-08-19T19:11:41;12.52;;;7.45;;
19384;SDS011;9828;54.122;17.974;2022-08-19T19:17:06;8.32;;;7.53;;
19384;SDS011;9828;54.122;17.974;2022-08-19T19:22:30;13.50;;;8.48;;
19384;SDS011;9828;54.122;17.974;2022-08-19T19:27:52;16.95;;;8.73;;
19384;SDS011;9828;54.122;17.974;2022-08-19T19:33:14;11.88;;;8.48;;
19384;SDS011;9828;54.122;17.974;2022-08-19T19:38:35;12.20;;;7.03;;
19384;SDS011;9828;54.122;17.974;2022-08-19T19:43:57;12.00;;;8.73;;
19384;SDS011;9828;54.122;17.974;2022-08-19T19:49:35;8.60;;;7.10;;
19384;SDS011;9828;54.122;17.974;2022-08-19T19:55:04;8.90;;;7.15;;
19384;SDS011;9828;54.122;17.974;2022-08-19T20:00:26;11.48;;;7.88;;
19384;SDS011;9828;54.122;17.974;2022-08-19T20:05:49;11.80;;;8.57;;
19384;SDS011;9828;54.122;17.974;2022-08-19T20:11:12;12.38;;;8.88;;
19384;SDS011;9828;54.122;17.974;2022-08-19T20:16:45;11.88;;;8.57;;
19384;SDS011;9828;54.122;17.974;2022-08-19T20:22:07;13.70;;;8.95;;
19384;SDS011;9828;54.122;17.974;2022-08-19T20:27:29;15.73;;;8.25;;
19384;SDS011;9828;54.122;17.974;2022-08-19T20:32:54;10.23;;;8.07;;
19384;SDS011;9828;54.122;17.974;2022-08-19T20:38:15;8.60;;;7.70;;
19384;SDS011;9828;54.122;17.974;2022-08-19T20:43:37;11.18;;;9.57;;
19384;SDS011;9828;54.122;17.974;2022-08-19T20:48:59;10.43;;;8.25;;
19384;SDS011;9828;54.122;17.974;2022-08-19T20:54:20;13.90;;;9.07;;
19384;SDS011;9828;54.122;17.974;2022-08-19T20:59:42;14.85;;;9.35;;
19384;SDS011;9828;54.122;17.974;2022-08-19T21:05:03;13.52;;;10.20;;
19384;SDS011;9828;54.122;17.974;2022-08-19T21:10:26;12.82;;;9.82;;
19384;SDS011;9828;54.122;17.974;2022-08-19T21:15:47;11.75;;;10.05;;
19384;SDS011;9828;54.122;17.974;2022-08-19T21:21:09;13.38;;;10.93;;
19384;SDS011;9828;54.122;17.974;2022-08-19T21:26:30;13.18;;;10.70;;
19384;SDS011;9828;54.122;17.974;2022-08-19T21:31:51;15.23;;;11.05;;
19384;SDS011;9828;54.122;17.974;2022-08-19T21:37:13;14.98;;;10.77;;
19384;SDS011;9828;54.122;17.974;2022-08-19T21:42:34;12.15;;;10.63;;
19384;SDS011;9828;54.122;17.974;2022-08-19T21:47:57;13.93;;;11.60;;
19384;SDS011;9828;54.122;17.974;2022-08-19T21:53:18;14.15;;;11.25;;
19384;SDS011;9828;54.122;17.974;2022-08-19T21:58:40;12.75;;;11.30;;
19384;SDS011;9828;54.122;17.974;2022-08-19T22:04:01;15.35;;;11.18;;
19384;SDS011;9828;54.122;17.974;2022-08-19T22:09:22;13.48;;;11.18;;
19384;SDS011;9828;54.122;17.974;2022-08-19T22:14:43;14.77;;;11.60;;
19384;SDS011;9828;54.122;17.974;2022-08-19T22:20:05;12.65;;;11.35;;
19384;SDS011;9828;54.122;17.974;2022-08-19T22:25:31;13.65;;;11.60;;
19384;SDS011;9828;54.122;17.974;2022-08-19T22:30:57;13.70;;;12.25;;
19384;SDS011;9828;54.122;17.974;2022-08-19T22:36:18;14.77;;;11.60;;
19384;SDS011;9828;54.122;17.974;2022-08-19T22:41:40;16.92;;;13.25;;
19384;SDS011;9828;54.122;17.974;2022-08-19T22:47:01;16.48;;;14.70;;
19384;SDS011;9828;54.122;17.974;2022-08-19T22:52:22;17.65;;;14.27;;
19384;SDS011;9828;54.122;17.974;2022-08-19T22:57:43;22.58;;;16.38;;
19384;SDS011;9828;54.122;17.974;2022-08-19T23:03:04;18.80;;;15.60;;
19384;SDS011;9828;54.122;17.974;2022-08-19T23:08:26;16.77;;;14.55;;
19384;SDS011;9828;54.122;17.974;2022-08-19T23:13:47;15.63;;;14.02;;
19384;SDS011;9828;54.122;17.974;2022-08-19T23:19:09;18.23;;;14.70;;
19384;SDS011;9828;54.122;17.974;2022-08-19T23:24:30;15.85;;;13.95;;
19384;SDS011;9828;54.122;17.974;2022-08-19T23:29:52;17.65;;;15.52;;
19384;SDS011;9828;54.122;17.974;2022-08-19T23:35:32;19.83;;;16.23;;
19384;SDS011;9828;54.122;17.974;2022-08-19T23:40:57;18.75;;;16.90;;
19384;SDS011;9828;54.122;17.974;2022-08-19T23:46:20;20.13;;;16.83;;
19384;SDS011;9828;54.122;17.974;2022-08-19T23:51:42;20.40;;;18.23;;
19384;SDS011;9828;54.122;17.974;2022-08-19T23:57:03;24.27;;;20.00;;
